createdAt,value
2022-09-03T00:00:18.224Z,60.45
2022-09-03T00:02:49.060Z,60.14
2022-09-03T00:05:21.086Z,60.76
2022-09-03T00:07:55.652Z,60.64
2022-09-03T00:10:27.872Z,61.09
2022-09-03T00:13:00.220Z,60.99
2022-09-03T00:15:28.204Z,61.22
2022-09-03T00:18:00.068Z,61.06
2022-09-03T00:20:31.994Z,61.16
2022-09-03T00:23:02.315Z,61.50
2022-09-03T00:25:35.343Z,61.61
2022-09-03T00:28:07.620Z,61.58
2022-09-03T00:30:35.887Z,61.58
2022-09-03T00:33:09.471Z,61.61
2022-09-03T00:35:42.039Z,61.62
2022-09-03T00:38:11.067Z,61.51
2022-09-03T00:40:50.403Z,61.72
2022-09-03T00:43:24.788Z,61.92
2022-09-03T00:45:58.470Z,62.41
2022-09-03T00:48:28.652Z,62.27
2022-09-03T00:51:07.435Z,62.58
2022-09-03T00:53:42.191Z,62.30
2022-09-03T00:56:16.085Z,62.73
2022-09-03T00:58:57.005Z,62.60
2022-09-03T01:01:29.643Z,62.53
2022-09-03T01:04:08.009Z,62.40
2022-09-03T01:06:42.899Z,62.53
2022-09-03T01:09:24.138Z,62.18
2022-09-03T01:11:59.621Z,62.69
2022-09-03T01:14:36.001Z,62.45
2022-09-03T01:17:11.760Z,62.57
2022-09-03T01:20:01.780Z,62.55
2022-09-03T01:23:03.795Z,62.82
2022-09-03T01:25:43.099Z,62.42
2022-09-03T01:28:20.464Z,62.63
2022-09-03T01:30:52.121Z,62.61
2022-09-03T01:33:24.620Z,62.63
2022-09-03T01:35:56.999Z,62.84
2022-09-03T01:38:31.303Z,62.20
2022-09-03T01:41:21.535Z,62.10
2022-09-03T01:44:00.262Z,62.25
2022-09-03T01:46:31.489Z,62.81
2022-09-03T01:49:04.932Z,62.66
2022-09-03T01:51:33.821Z,62.90
2022-09-03T01:54:21.027Z,62.68
2022-09-03T01:57:15.114Z,63.00
2022-09-03T02:00:01.280Z,62.68
2022-09-03T02:02:30.777Z,62.76
2022-09-03T02:05:03.731Z,62.67
2022-09-03T02:07:34.759Z,62.20
2022-09-03T02:10:04.012Z,62.80
2022-09-03T02:12:34.432Z,62.41
2022-09-03T02:15:06.495Z,62.67
2022-09-03T02:17:34.972Z,62.58
2022-09-03T02:20:05.864Z,62.73
2022-09-03T02:22:33.934Z,62.74
2022-09-03T02:25:01.628Z,62.99
2022-09-03T02:27:29.572Z,62.89
2022-09-03T02:29:58.095Z,63.23
2022-09-03T02:32:27.804Z,62.83
2022-09-03T02:34:55.373Z,63.02
2022-09-03T02:37:23.788Z,63.75
2022-09-03T02:39:51.981Z,63.73
2022-09-03T02:42:20.533Z,63.94
2022-09-03T02:44:50.322Z,63.59
2022-09-03T02:47:20.588Z,63.54
2022-09-03T02:49:50.078Z,63.50
2022-09-03T02:52:17.933Z,63.48
2022-09-03T02:54:45.914Z,63.86
2022-09-03T02:57:16.933Z,63.48
2022-09-03T02:59:51.480Z,63.66
2022-09-03T03:02:19.137Z,63.54
2022-09-03T03:04:46.858Z,64.14
2022-09-03T03:07:15.822Z,63.63
2022-09-03T03:09:44.049Z,63.80
2022-09-03T03:12:11.677Z,64.01
2022-09-03T03:14:39.260Z,64.37
2022-09-03T03:17:06.920Z,64.21
2022-09-03T03:19:34.662Z,63.72
2022-09-03T03:22:02.320Z,64.47
2022-09-03T03:24:31.245Z,64.39
2022-09-03T03:26:59.271Z,64.67
2022-09-03T03:29:27.888Z,64.44
2022-09-03T03:31:55.905Z,64.46
2022-09-03T03:34:23.515Z,64.57
2022-09-03T03:36:51.127Z,65.77
2022-09-03T03:39:18.839Z,65.78
2022-09-03T03:41:47.787Z,65.51
2022-09-03T03:44:15.442Z,65.78
2022-09-03T03:46:43.186Z,66.00
2022-09-03T03:49:11.075Z,65.57
2022-09-03T03:51:39.071Z,65.88
2022-09-03T03:54:07.312Z,65.92
2022-09-03T03:56:35.606Z,66.57
2022-09-03T03:59:05.324Z,66.35
2022-09-03T04:01:33.208Z,66.61
2022-09-03T04:04:01.155Z,66.62
2022-09-03T04:06:29.265Z,66.73
2022-09-03T04:08:56.958Z,66.70
2022-09-03T04:11:26.016Z,66.86
2022-09-03T04:13:54.353Z,67.06
2022-09-03T04:16:25.016Z,66.97
2022-09-03T04:18:54.111Z,66.94
2022-09-03T04:21:23.276Z,66.90
2022-09-03T04:23:51.797Z,66.79
2022-09-03T04:26:20.790Z,66.96
2022-09-03T04:28:48.705Z,66.82
2022-09-03T04:31:19.736Z,66.72
2022-09-03T04:33:48.713Z,66.98
2022-09-03T04:36:17.970Z,67.33
2022-09-03T04:38:46.731Z,67.37
2022-09-03T04:41:16.182Z,66.86
2022-09-03T04:43:43.948Z,67.45
2022-09-03T04:46:17.584Z,67.91
2022-09-03T04:48:51.020Z,67.80
2022-09-03T04:51:20.422Z,68.17
2022-09-03T04:53:49.934Z,68.24
2022-09-03T04:56:20.271Z,67.69
2022-09-03T04:58:49.212Z,67.62
2022-09-03T05:01:20.439Z,66.92
2022-09-03T05:03:48.165Z,66.88
2022-09-03T05:06:17.322Z,67.14
2022-09-03T05:08:46.348Z,67.14
2022-09-03T05:11:15.882Z,67.40
2022-09-03T05:13:43.490Z,67.65
2022-09-03T05:16:13.059Z,68.66
2022-09-03T05:18:42.381Z,69.54
2022-09-03T05:21:11.680Z,70.76
2022-09-03T05:23:42.499Z,70.94
2022-09-03T05:26:11.862Z,72.86
2022-09-03T05:28:41.289Z,74.31
2022-09-03T05:31:10.307Z,73.76
2022-09-03T05:33:39.355Z,73.57
2022-09-03T05:36:09.922Z,72.11
2022-09-03T05:38:37.901Z,72.80
2022-09-03T05:41:09.059Z,73.53
2022-09-03T05:43:37.290Z,75.38
2022-09-03T05:46:06.945Z,76.38
2022-09-03T05:48:35.283Z,75.76
2022-09-03T05:51:04.637Z,76.24
2022-09-03T05:53:34.996Z,77.01
2022-09-03T05:56:06.001Z,76.69
2022-09-03T05:58:36.908Z,77.01
2022-09-03T06:01:11.188Z,74.28
2022-09-03T06:03:38.924Z,74.87
2022-09-03T06:06:07.164Z,75.31
2022-09-03T06:08:35.017Z,73.67
2022-09-03T06:11:04.094Z,75.54
2022-09-03T06:13:32.742Z,76.92
2022-09-03T06:16:03.060Z,75.96
2022-09-03T06:18:31.202Z,76.16
2022-09-03T06:21:00.172Z,75.88
2022-09-03T06:23:29.682Z,76.29
2022-09-03T06:26:05.665Z,76.64
2022-09-03T06:28:34.862Z,77.50
2022-09-03T06:31:05.865Z,76.53
2022-09-03T06:33:36.639Z,77.94
2022-09-03T06:36:09.008Z,79.67
2022-09-03T06:38:39.184Z,82.67
2022-09-03T06:41:08.216Z,83.69
2022-09-03T06:43:37.948Z,84.89
2022-09-03T06:46:09.008Z,86.20
2022-09-03T06:48:37.609Z,86.91
2022-09-03T06:51:07.464Z,88.08
2022-09-03T06:53:36.940Z,88.49
2022-09-03T06:56:07.608Z,89.74
2022-09-03T06:58:37.797Z,90.13
2022-09-03T07:01:08.240Z,90.76
2022-09-03T07:03:36.254Z,91.57
2022-09-03T07:06:05.115Z,92.73
2022-09-03T07:08:33.363Z,93.68
2022-09-03T07:11:01.614Z,92.57
2022-09-03T07:13:29.379Z,92.87
2022-09-03T07:16:01.988Z,93.33
2022-09-03T07:18:31.553Z,93.07
2022-09-03T07:21:00.796Z,93.56
2022-09-03T07:23:29.297Z,95.15
2022-09-03T07:25:57.838Z,96.74
2022-09-03T07:28:26.183Z,98.21
2022-09-03T07:30:54.530Z,97.78
2022-09-03T07:33:22.278Z,98.02
2022-09-03T07:35:51.279Z,97.07
2022-09-03T07:38:20.105Z,96.80
2022-09-03T07:40:48.155Z,97.42
2022-09-03T07:43:16.740Z,98.01
2022-09-03T07:45:45.732Z,98.75
2022-09-03T07:48:13.459Z,99.45
2022-09-03T07:50:41.224Z,100.00
2022-09-03T07:53:10.208Z,99.40
2022-09-03T07:55:37.875Z,100.00
2022-09-03T07:58:05.891Z,100.00
2022-09-03T08:00:35.478Z,100.00
2022-09-03T08:03:06.734Z,100.00
2022-09-03T08:05:35.411Z,100.00
2022-09-03T08:08:03.427Z,100.00
2022-09-03T08:10:35.799Z,100.00
2022-09-03T08:13:05.510Z,100.00
2022-09-03T08:15:34.172Z,100.00
2022-09-03T08:18:03.535Z,100.00
2022-09-03T08:20:33.376Z,100.00
2022-09-03T08:23:04.356Z,100.00
2022-09-03T08:25:32.012Z,100.00
2022-09-03T08:28:01.294Z,100.00
2022-09-03T08:30:29.372Z,100.00
2022-09-03T08:32:57.152Z,100.00
2022-09-03T08:35:24.878Z,100.00
2022-09-03T08:37:56.817Z,100.00
2022-09-03T08:40:24.979Z,100.00
2022-09-03T08:43:06.911Z,100.00
2022-09-03T08:45:36.458Z,100.00
2022-09-03T08:48:07.266Z,100.00
2022-09-03T08:50:37.989Z,100.00
2022-09-03T08:53:12.085Z,97.55
2022-09-03T08:55:44.900Z,97.13
2022-09-03T08:58:17.278Z,99.76
2022-09-03T09:00:50.585Z,99.63
2022-09-03T09:03:39.004Z,98.16
2022-09-03T09:06:12.628Z,96.18
2022-09-03T09:08:48.240Z,95.67
2022-09-03T09:11:22.611Z,97.91
2022-09-03T09:13:57.442Z,95.70
2022-09-03T09:16:32.678Z,97.10
2022-09-03T09:19:11.453Z,97.12
2022-09-03T09:21:46.313Z,95.30
2022-09-03T09:24:23.358Z,97.06
2022-09-03T09:26:51.673Z,97.84
2022-09-03T09:29:20.817Z,97.10
2022-09-03T09:31:49.408Z,96.79
2022-09-03T09:34:17.105Z,94.52
2022-09-03T09:36:50.458Z,97.09
2022-09-03T09:39:19.151Z,95.92
2022-09-03T09:41:58.707Z,93.60
2022-09-03T09:44:28.046Z,95.48
2022-09-03T09:47:06.750Z,95.29
2022-09-03T09:49:36.207Z,93.62
2022-09-03T09:52:07.918Z,94.26
2022-09-03T09:54:36.111Z,94.83
2022-09-03T09:57:06.256Z,91.66
2022-09-03T09:59:37.969Z,90.73
2022-09-03T10:02:11.598Z,92.43
2022-09-03T10:04:43.975Z,89.75
2022-09-03T10:07:25.817Z,91.93
2022-09-03T10:10:01.486Z,89.49
2022-09-03T10:12:34.920Z,88.20
2022-09-03T10:15:24.606Z,89.84
2022-09-03T10:18:03.319Z,87.33
2022-09-03T10:20:37.317Z,88.17
2022-09-03T10:23:11.521Z,86.91
2022-09-03T10:25:45.796Z,85.85
2022-09-03T10:28:14.693Z,84.55
2022-09-03T10:30:55.338Z,85.66
2022-09-03T10:33:27.490Z,85.73
2022-09-03T10:36:05.149Z,86.32
2022-09-03T10:38:38.289Z,88.38
2022-09-03T10:41:20.058Z,89.27
2022-09-03T10:44:10.268Z,88.32
2022-09-03T10:46:47.705Z,87.68
2022-09-03T10:49:27.317Z,87.38
2022-09-03T10:52:03.400Z,86.16
2022-09-03T10:54:49.871Z,84.32
2022-09-03T10:57:26.529Z,84.82
2022-09-03T11:00:03.847Z,83.98
2022-09-03T11:02:48.373Z,85.75
2022-09-03T11:05:19.423Z,84.62
2022-09-03T11:07:49.404Z,82.50
2022-09-03T11:10:20.381Z,82.24
2022-09-03T11:12:53.087Z,80.54
2022-09-03T11:15:27.787Z,80.62
2022-09-03T11:18:00.921Z,81.25
2022-09-03T11:20:28.719Z,82.24
2022-09-03T11:22:59.108Z,81.92
2022-09-03T11:25:31.651Z,82.14
2022-09-03T11:28:08.881Z,83.98
2022-09-03T11:30:41.192Z,83.65
2022-09-03T11:33:11.710Z,81.84
2022-09-03T11:35:42.431Z,83.13
2022-09-03T11:38:24.589Z,84.38
2022-09-03T11:41:00.243Z,84.35
2022-09-03T11:43:29.417Z,83.42
2022-09-03T11:46:05.893Z,82.56
2022-09-03T11:48:39.758Z,83.20
2022-09-03T11:51:20.236Z,81.14
2022-09-03T11:53:56.623Z,81.58
2022-09-03T11:56:24.720Z,81.06
2022-09-03T11:59:09.294Z,82.07
2022-09-03T12:01:38.710Z,81.62
2022-09-03T12:04:16.643Z,81.60
2022-09-03T12:06:57.017Z,81.08
2022-09-03T12:09:51.432Z,78.62
2022-09-03T12:12:37.497Z,78.65
2022-09-03T12:15:09.895Z,77.32
2022-09-03T12:17:45.554Z,76.69
2022-09-03T12:20:17.218Z,78.03
2022-09-03T12:22:45.002Z,78.01
2022-09-03T12:25:14.984Z,77.67
2022-09-03T12:27:44.149Z,77.88
2022-09-03T12:30:16.929Z,76.58
2022-09-03T12:32:46.429Z,76.36
2022-09-03T12:38:08.383Z,77.46
2022-09-03T12:41:24.118Z,78.14
2022-09-03T12:43:38.942Z,79.67
2022-09-03T12:46:15.142Z,77.50
2022-09-03T12:51:51.937Z,76.20
2022-09-03T12:54:20.789Z,75.07
2022-09-03T12:56:56.270Z,74.88
2022-09-03T12:59:25.354Z,75.90
2022-09-03T13:01:55.871Z,74.68
2022-09-03T13:04:26.854Z,74.36
2022-09-03T13:06:58.271Z,74.06
2022-09-03T13:09:29.930Z,73.64
2022-09-03T13:11:59.157Z,75.25
2022-09-03T13:14:27.605Z,75.31
2022-09-03T13:17:06.647Z,74.29
2022-09-03T13:19:42.207Z,73.51
2022-09-03T13:22:16.713Z,74.15
2022-09-03T13:24:58.334Z,73.95
2022-09-03T13:27:32.997Z,72.76
2022-09-03T13:30:06.907Z,73.32
2022-09-03T13:32:41.014Z,73.67
2022-09-03T13:35:11.751Z,72.52
2022-09-03T13:37:44.302Z,73.55
2022-09-03T13:40:22.428Z,73.27
2022-09-03T13:42:54.311Z,73.98
2022-09-03T13:45:31.468Z,73.80
2022-09-03T13:48:20.308Z,73.15
2022-09-03T13:50:57.708Z,72.77
2022-09-03T13:53:37.168Z,73.35
2022-09-03T13:56:09.945Z,72.97
2022-09-03T13:58:44.885Z,72.75
2022-09-03T14:01:20.319Z,73.31
2022-09-03T14:03:50.834Z,72.12
2022-09-03T14:06:27.461Z,72.90
2022-09-03T14:09:05.696Z,72.23
2022-09-03T14:11:36.560Z,71.79
2022-09-03T14:14:12.589Z,71.60
2022-09-03T14:16:43.732Z,71.96
2022-09-03T14:19:15.982Z,72.67
2022-09-03T14:21:46.615Z,72.23
2022-09-03T14:24:22.358Z,72.61
2022-09-03T14:26:52.737Z,73.45
2022-09-03T14:29:22.271Z,73.67
2022-09-03T14:34:37.615Z,74.91
2022-09-03T14:37:10.271Z,73.91
2022-09-03T14:39:48.498Z,74.52
2022-09-03T14:42:37.605Z,75.25
2022-09-03T14:45:20.043Z,75.67
2022-09-03T14:47:58.836Z,75.49
2022-09-03T14:50:39.743Z,75.69
2022-09-03T14:53:18.168Z,75.17
2022-09-03T14:56:03.767Z,75.74
2022-09-03T14:58:44.615Z,75.95
2022-09-03T15:01:15.106Z,75.38
2022-09-03T15:04:05.876Z,75.61
2022-09-03T15:06:41.114Z,75.78
2022-09-03T15:09:30.070Z,76.10
2022-09-03T15:12:02.452Z,76.91
2022-09-03T15:14:37.097Z,76.59
2022-09-03T15:17:25.418Z,76.46
2022-09-03T15:20:03.964Z,76.22
2022-09-03T15:22:44.813Z,76.54
2022-09-03T15:25:23.027Z,76.31
2022-09-03T15:28:05.764Z,77.01
2022-09-03T15:30:40.334Z,77.54
2022-09-03T15:33:17.224Z,77.92
2022-09-03T15:35:56.965Z,79.24
2022-09-03T15:38:35.656Z,79.24
2022-09-03T15:41:06.778Z,78.80
2022-09-03T15:43:36.208Z,79.76
2022-09-03T15:46:12.038Z,82.82
2022-09-03T15:48:47.596Z,78.12
2022-09-03T15:51:19.201Z,82.08
2022-09-03T15:53:52.674Z,81.65
2022-09-03T15:56:24.067Z,83.39
2022-09-03T15:58:59.010Z,82.28
2022-09-03T16:01:38.689Z,85.64
2022-09-03T16:04:13.512Z,87.00
2022-09-03T16:06:53.491Z,87.76
2022-09-03T16:09:31.404Z,90.62
2022-09-03T16:12:07.738Z,92.28
2022-09-03T16:14:41.538Z,93.42
2022-09-03T16:17:17.775Z,94.65
2022-09-03T16:19:49.060Z,94.79
2022-09-03T16:22:23.644Z,95.91
2022-09-03T16:24:55.269Z,96.42
2022-09-03T16:27:24.927Z,97.55
2022-09-03T16:30:00.070Z,98.29
2022-09-03T16:32:49.118Z,97.82
2022-09-03T16:35:25.804Z,97.73
2022-09-03T16:38:05.758Z,98.53
2022-09-03T16:40:38.864Z,99.50
2022-09-03T16:43:38.933Z,100.00
2022-09-03T16:46:08.306Z,100.00
2022-09-03T16:48:46.212Z,100.00
2022-09-03T16:51:18.850Z,100.00
2022-09-03T16:54:05.806Z,100.00
2022-09-03T16:56:43.253Z,100.00
2022-09-03T16:59:23.118Z,100.00
2022-09-03T17:02:18.249Z,100.00
2022-09-03T17:05:09.582Z,100.00
2022-09-03T17:07:59.805Z,100.00
2022-09-03T17:10:36.453Z,100.00
2022-09-03T17:13:27.419Z,100.00
2022-09-03T17:16:00.453Z,100.00
2022-09-03T17:18:36.753Z,100.00
2022-09-03T17:21:15.395Z,100.00
2022-09-03T17:23:58.945Z,100.00
2022-09-03T17:26:32.094Z,100.00
2022-09-03T17:29:09.609Z,100.00
2022-09-03T17:31:51.327Z,100.00
2022-09-03T17:34:34.786Z,100.00
2022-09-03T17:37:11.877Z,100.00
2022-09-03T17:40:10.324Z,100.00
2022-09-03T17:42:49.118Z,100.00
2022-09-03T17:45:21.832Z,100.00
2022-09-03T17:48:02.517Z,100.00
2022-09-03T17:50:33.876Z,100.00
2022-09-03T17:53:04.156Z,100.00
2022-09-03T17:55:36.509Z,100.00
2022-09-03T17:58:11.057Z,100.00
2022-09-03T18:00:45.723Z,100.00
2022-09-03T18:03:18.391Z,100.00
2022-09-03T18:06:00.852Z,100.00
2022-09-03T18:08:44.887Z,100.00
2022-09-03T18:11:14.924Z,100.00
2022-09-03T18:13:48.038Z,100.00
2022-09-03T18:16:20.718Z,100.00
2022-09-03T18:18:52.010Z,100.00
2022-09-03T18:21:42.167Z,100.00
2022-09-03T18:24:40.039Z,100.00
2022-09-03T18:27:29.390Z,100.00
2022-09-03T18:30:20.131Z,100.00
2022-09-03T18:33:05.463Z,100.00
2022-09-03T18:35:53.171Z,100.00
2022-09-03T18:38:43.108Z,100.00
2022-09-03T18:41:39.646Z,100.00
2022-09-03T18:44:31.617Z,100.00
2022-09-03T18:50:36.293Z,100.00
2022-09-03T18:53:29.010Z,100.00
2022-09-03T18:56:24.777Z,100.00
2022-09-03T18:59:17.447Z,100.00
2022-09-03T19:02:02.890Z,100.00
2022-09-03T19:05:02.200Z,100.00
2022-09-03T19:08:00.354Z,100.00
2022-09-03T19:10:48.362Z,100.00
2022-09-03T19:13:43.299Z,100.00
2022-09-03T19:16:35.149Z,100.00
2022-09-03T19:19:34.156Z,100.00
2022-09-03T19:22:26.208Z,100.00
2022-09-03T19:25:13.944Z,100.00
2022-09-03T19:28:05.016Z,100.00
2022-09-03T19:31:01.651Z,100.00
2022-09-03T19:33:54.265Z,100.00
2022-09-03T19:36:44.988Z,100.00
2022-09-03T19:39:38.542Z,100.00
2022-09-03T19:42:27.801Z,100.00
2022-09-03T19:45:19.194Z,100.00
2022-09-03T19:48:23.372Z,100.00
2022-09-03T19:51:18.028Z,100.00
2022-09-03T19:54:04.425Z,100.00
2022-09-03T19:56:49.728Z,100.00
2022-09-03T19:59:37.995Z,100.00
2022-09-03T20:02:23.904Z,100.00
2022-09-03T20:05:16.901Z,100.00
2022-09-03T20:08:03.261Z,100.00
2022-09-03T20:10:29.888Z,100.00
2022-09-03T20:13:04.704Z,100.00
2022-09-03T20:15:43.871Z,100.00
2022-09-03T20:18:17.682Z,100.00
2022-09-03T20:20:50.147Z,100.00
2022-09-03T20:23:22.150Z,100.00
2022-09-03T20:26:09.785Z,100.00
2022-09-03T20:28:51.422Z,100.00
2022-09-03T20:31:24.523Z,100.00
2022-09-03T20:33:59.597Z,100.00
2022-09-03T20:36:35.807Z,100.00
2022-09-03T20:39:20.329Z,100.00
2022-09-03T20:41:58.545Z,100.00
2022-09-03T20:44:39.752Z,100.00
2022-09-03T20:47:21.192Z,100.00
2022-09-03T20:49:54.806Z,100.00
2022-09-03T20:52:30.688Z,100.00
2022-09-03T20:55:05.822Z,100.00
2022-09-03T20:57:41.742Z,100.00
2022-09-03T21:00:12.642Z,100.00
2022-09-03T21:02:58.704Z,100.00
2022-09-03T21:05:28.956Z,100.00
2022-09-03T21:08:06.358Z,100.00
2022-09-03T21:10:37.620Z,100.00
2022-09-03T21:13:11.171Z,100.00
2022-09-03T21:15:44.931Z,100.00
2022-09-03T21:18:19.326Z,100.00
2022-09-03T21:20:49.068Z,100.00
2022-09-03T21:23:23.124Z,100.00
2022-09-03T21:25:55.155Z,100.00
2022-09-03T21:28:25.678Z,100.00
2022-09-03T21:30:59.357Z,100.00
2022-09-03T21:33:29.680Z,100.00
2022-09-03T21:36:03.665Z,100.00
2022-09-03T21:38:36.999Z,100.00
2022-09-03T21:41:12.651Z,100.00
2022-09-03T21:43:46.600Z,100.00
2022-09-03T21:46:16.993Z,100.00
2022-09-03T21:48:49.387Z,100.00
2022-09-03T21:51:21.830Z,100.00
2022-09-03T21:53:54.735Z,100.00
2022-09-03T21:56:33.817Z,100.00
2022-09-03T21:59:08.894Z,100.00
2022-09-03T22:01:45.282Z,100.00
2022-09-03T22:04:12.991Z,100.00
2022-09-03T22:06:48.054Z,100.00
2022-09-03T22:09:19.730Z,100.00
2022-09-03T22:11:53.787Z,100.00
2022-09-03T22:14:24.621Z,100.00
2022-09-03T22:16:58.620Z,100.00
2022-09-03T22:19:27.956Z,100.00
2022-09-03T22:21:59.586Z,100.00
2022-09-03T22:24:36.162Z,100.00
2022-09-03T22:27:09.596Z,100.00
2022-09-03T22:29:42.949Z,100.00
2022-09-03T22:32:24.952Z,100.00
2022-09-03T22:35:02.752Z,100.00
2022-09-03T22:37:41.434Z,100.00
2022-09-03T22:40:19.091Z,100.00
2022-09-03T22:43:06.979Z,100.00
2022-09-03T22:45:44.097Z,100.00
2022-09-03T22:48:20.983Z,100.00
2022-09-03T22:50:52.948Z,100.00
2022-09-03T22:53:32.287Z,100.00
2022-09-03T22:56:06.590Z,100.00
2022-09-03T22:58:36.625Z,100.00
2022-09-03T23:01:09.293Z,100.00
2022-09-03T23:03:42.093Z,100.00
2022-09-03T23:06:15.349Z,100.00
2022-09-03T23:08:49.656Z,100.00
2022-09-03T23:11:25.698Z,100.00
2022-09-03T23:13:57.982Z,100.00
2022-09-03T23:16:30.855Z,100.00
2022-09-03T23:19:01.361Z,100.00
2022-09-03T23:21:35.123Z,100.00
2022-09-03T23:24:08.221Z,100.00
2022-09-03T23:26:41.637Z,100.00
2022-09-03T23:29:13.169Z,100.00
2022-09-03T23:31:40.881Z,100.00
2022-09-03T23:34:10.245Z,100.00
2022-09-03T23:37:31.716Z,100.00
2022-09-03T23:39:49.137Z,100.00
2022-09-03T23:42:24.518Z,100.00
2022-09-03T23:45:01.913Z,100.00
2022-09-03T23:47:39.698Z,100.00
2022-09-03T23:50:14.268Z,100.00
2022-09-03T23:53:03.139Z,100.00
2022-09-03T23:55:41.948Z,100.00
2022-09-03T23:58:19.049Z,100.00
